Time;durP1;ratioP1;P1;durP2;ratioP2;P2;SDS_P1;SDS_P2;PMS_P1;PMS_P2;Temp;Humidity;BMP_temperature;BMP_pressure;BME280_temperature;BME280_humidity;BME280_pressure;Samples;Min_cycle;Max_cycle;Signal;HPM_P1;HPM_P2
2023/04/22 00:02:06;;;;;;;9.00;7.28;;;11.90;99.90;;;;;;5054137;28;20044;-63
2023/04/22 00:04:32;;;;;;;8.07;6.57;;;11.90;99.90;;;;;;5071967;28;20047;-62
2023/04/22 00:06:58;;;;;;;7.60;6.43;;;11.80;99.90;;;;;;5071682;28;20141;-63
2023/04/22 00:09:24;;;;;;;9.30;7.10;;;11.80;99.90;;;;;;5072452;28;20145;-63
2023/04/22 00:11:51;;;;;;;9.10;6.50;;;11.80;99.90;;;;;;5071791;28;20586;-63
2023/04/22 00:14:16;;;;;;;8.65;6.88;;;11.70;99.90;;;;;;5054135;28;20490;-63
2023/04/22 00:16:42;;;;;;;10.15;7.25;;;11.70;99.90;;;;;;5072433;28;20090;-62
2023/04/22 00:19:07;;;;;;;7.38;6.47;;;11.60;99.90;;;;;;5054518;28;20482;-63
2023/04/22 00:21:33;;;;;;;8.00;6.38;;;11.60;99.90;;;;;;5071901;28;20050;-62
2023/04/22 00:23:58;;;;;;;9.32;7.20;;;11.60;99.90;;;;;;5054435;28;20405;-63
2023/04/22 00:26:24;;;;;;;7.63;6.50;;;11.60;99.90;;;;;;5072070;28;20067;-62
2023/04/22 00:28:50;;;;;;;6.90;6.13;;;11.50;99.90;;;;;;5071999;28;20464;-63
2023/04/22 00:31:15;;;;;;;8.20;6.43;;;11.50;99.90;;;;;;5071833;28;20044;-63
2023/04/22 00:33:41;;;;;;;7.43;6.53;;;11.50;99.90;;;;;;5054283;28;20501;-63
2023/04/22 00:36:06;;;;;;;9.13;6.63;;;11.40;99.90;;;;;;5054050;28;20036;-63
2023/04/22 00:38:32;;;;;;;8.50;6.88;;;11.30;99.90;;;;;;5071861;28;20108;-62
2023/04/22 00:40:58;;;;;;;9.70;7.63;;;11.30;99.90;;;;;;5071513;28;20040;-63
2023/04/22 00:43:24;;;;;;;8.48;6.50;;;11.30;99.90;;;;;;5070947;28;20048;-63
2023/04/22 00:45:49;;;;;;;8.68;6.57;;;11.20;99.90;;;;;;5072030;28;20048;-63
2023/04/22 00:48:15;;;;;;;9.82;6.85;;;11.20;99.90;;;;;;5071579;28;20048;-62
2023/04/22 00:50:41;;;;;;;7.40;5.40;;;11.20;99.90;;;;;;5071494;28;20047;-62
2023/04/22 00:53:07;;;;;;;45.25;7.65;;;11.20;99.90;;;;;;5071163;28;20037;-62
2023/04/22 00:55:33;;;;;;;9.57;6.03;;;11.10;99.90;;;;;;5071098;28;20410;-63
2023/04/22 00:57:59;;;;;;;10.57;6.07;;;11.10;99.90;;;;;;5071349;28;20463;-62
2023/04/22 01:00:26;;;;;;;7.75;5.93;;;11.00;99.90;;;;;;5071949;28;20426;-63
2023/04/22 01:02:54;;;;;;;8.18;6.03;;;11.00;99.90;;;;;;5071351;28;20098;-62
2023/04/22 01:05:20;;;;;;;9.55;5.75;;;11.00;99.90;;;;;;5053614;28;20040;-62
2023/04/22 01:07:45;;;;;;;10.40;4.40;;;11.00;99.90;;;;;;5071727;28;20033;-63
2023/04/22 01:10:11;;;;;;;7.47;4.25;;;10.90;99.90;;;;;;5071606;28;20036;-62
2023/04/22 01:12:37;;;;;;;13.43;3.90;;;10.80;99.90;;;;;;5071053;28;20037;-63
2023/04/22 01:15:03;;;;;;;7.82;3.38;;;10.80;99.90;;;;;;5071760;28;20040;-62
2023/04/22 01:17:30;;;;;;;9.05;3.03;;;10.70;99.90;;;;;;5071718;28;20401;-63
2023/04/22 01:19:57;;;;;;;4.55;3.17;;;10.70;99.90;;;;;;5071687;28;20113;-63
2023/04/22 01:22:32;;;;;;;4.20;3.72;;;10.60;99.90;;;;;;5053270;28;20041;-62
2023/04/22 01:24:58;;;;;;;5.00;4.50;;;10.60;99.90;;;;;;5071407;28;20032;-62
2023/04/22 01:27:24;;;;;;;7.10;5.80;;;10.60;99.90;;;;;;5071663;28;20505;-62
2023/04/22 01:29:51;;;;;;;5.95;5.35;;;10.50;99.90;;;;;;5053395;28;20078;-62
2023/04/22 01:32:16;;;;;;;6.13;5.53;;;10.50;99.90;;;;;;5071163;28;20076;-62
2023/04/22 01:34:42;;;;;;;5.65;5.05;;;10.50;99.90;;;;;;5071436;28;20068;-62
2023/04/22 01:37:08;;;;;;;5.72;5.05;;;10.50;99.90;;;;;;5071432;28;20045;-63
2023/04/22 01:39:34;;;;;;;7.75;6.00;;;10.50;99.90;;;;;;5071275;28;20047;-62
2023/04/22 01:42:02;;;;;;;8.05;5.95;;;10.50;99.90;;;;;;5071162;28;20143;-62
2023/04/22 01:44:27;;;;;;;8.32;6.38;;;10.50;99.90;;;;;;5071418;28;20049;-63
2023/04/22 01:46:53;;;;;;;7.15;6.43;;;10.50;99.90;;;;;;5071351;28;20036;-63
2023/04/22 01:49:19;;;;;;;8.25;6.93;;;10.40;99.90;;;;;;5071395;28;20041;-62
2023/04/22 01:51:45;;;;;;;9.40;7.50;;;10.50;99.90;;;;;;5070954;28;20044;-63
2023/04/22 01:54:11;;;;;;;9.00;6.72;;;10.50;99.90;;;;;;5085939;22;20036;-65
2023/04/22 01:56:39;;;;;;;7.65;6.82;;;10.50;99.90;;;;;;5099752;28;20040;-65
2023/04/22 01:59:05;;;;;;;9.85;7.88;;;10.40;99.90;;;;;;5106812;28;20074;-65
2023/04/22 02:01:31;;;;;;;11.02;8.35;;;10.40;99.90;;;;;;5080838;28;20047;-65
2023/04/22 02:03:56;;;;;;;9.25;7.35;;;10.50;99.90;;;;;;5094230;28;20044;-65
2023/04/22 02:06:22;;;;;;;7.95;5.95;;;10.40;99.90;;;;;;5073579;28;20048;-65
2023/04/22 02:08:47;;;;;;;7.75;6.22;;;10.40;99.90;;;;;;5074508;28;20040;-65
2023/04/22 02:11:13;;;;;;;7.68;6.00;;;10.30;99.90;;;;;;5074455;28;20093;-65
2023/04/22 02:13:40;;;;;;;8.40;6.53;;;10.30;99.90;;;;;;5074508;28;20417;-65
2023/04/22 02:16:06;;;;;;;8.73;7.30;;;10.20;99.90;;;;;;5074810;28;20040;-65
2023/04/22 02:18:32;;;;;;;10.35;8.38;;;10.20;99.90;;;;;;5074178;28;20036;-65
2023/04/22 02:20:58;;;;;;;8.23;6.43;;;10.20;99.90;;;;;;5074184;28;20036;-65
2023/04/22 02:23:24;;;;;;;5.90;5.30;;;10.20;99.90;;;;;;5073785;28;20163;-65
2023/04/22 02:25:51;;;;;;;8.55;6.20;;;10.10;99.90;;;;;;5074483;28;20041;-65
2023/04/22 02:28:17;;;;;;;5.93;5.32;;;10.00;99.90;;;;;;5073714;28;20470;-66
2023/04/22 02:30:46;;;;;;;4.65;4.15;;;10.00;99.90;;;;;;5074026;28;20068;-66
2023/04/22 02:33:11;;;;;;;6.13;5.43;;;9.90;99.90;;;;;;5074143;28;20059;-65
2023/04/22 02:35:37;;;;;;;6.28;5.65;;;9.90;99.90;;;;;;5072497;28;20111;-65
2023/04/22 02:38:02;;;;;;;6.20;4.43;;;9.80;99.90;;;;;;5073640;28;20588;-66
2023/04/22 02:40:28;;;;;;;4.53;3.10;;;9.80;99.90;;;;;;5073965;28;20037;-65
2023/04/22 02:42:53;;;;;;;5.75;4.45;;;9.80;99.90;;;;;;5073820;28;20151;-65
2023/04/22 02:45:19;;;;;;;5.55;4.95;;;9.80;99.90;;;;;;5073981;28;20036;-65
2023/04/22 02:47:45;;;;;;;18.38;7.18;;;9.80;99.90;;;;;;5073986;28;20062;-65
2023/04/22 02:50:11;;;;;;;75.47;6.80;;;9.70;99.90;;;;;;5073833;28;20099;-66
2023/04/22 02:52:36;;;;;;;25.60;7.45;;;9.70;99.90;;;;;;5073206;28;20041;-65
2023/04/22 02:55:02;;;;;;;18.45;6.70;;;9.60;99.90;;;;;;5073705;28;20119;-65
2023/04/22 02:57:28;;;;;;;7.88;6.72;;;9.60;99.90;;;;;;5055717;28;20043;-65
2023/04/22 02:59:53;;;;;;;18.02;7.63;;;9.60;99.90;;;;;;5073858;28;20448;-65
2023/04/22 03:02:19;;;;;;;11.25;8.23;;;9.60;99.90;;;;;;5072995;28;20044;-66
2023/04/22 03:04:45;;;;;;;78.45;9.23;;;9.50;99.90;;;;;;5073243;28;20375;-65
2023/04/22 03:07:10;;;;;;;33.47;7.28;;;9.50;99.90;;;;;;5072518;28;20037;-65
2023/04/22 03:09:36;;;;;;;29.90;5.75;;;9.50;99.90;;;;;;5073004;28;20114;-65
2023/04/22 03:12:01;;;;;;;81.00;6.85;;;9.50;99.90;;;;;;5073261;28;20041;-65
2023/04/22 03:14:27;;;;;;;45.40;6.88;;;9.50;99.90;;;;;;5073017;28;20037;-65
2023/04/22 03:16:53;;;;;;;4.70;4.20;;;9.50;99.90;;;;;;5073093;28;20039;-65
2023/04/22 03:19:18;;;;;;;4.90;4.40;;;9.40;99.90;;;;;;5072979;28;20504;-65
2023/04/22 03:21:44;;;;;;;4.18;3.78;;;9.40;99.90;;;;;;5072930;28;20036;-65
2023/04/22 03:24:09;;;;;;;4.28;3.88;;;9.40;99.90;;;;;;5073195;28;20567;-66
2023/04/22 03:26:35;;;;;;;4.47;3.92;;;9.30;99.90;;;;;;5072838;28;20036;-65
2023/04/22 03:29:01;;;;;;;5.10;4.60;;;9.30;99.90;;;;;;5072887;28;20504;-65
2023/04/22 03:31:26;;;;;;;8.50;6.97;;;9.30;99.90;;;;;;5072878;28;20041;-66
2023/04/22 03:33:52;;;;;;;7.72;6.72;;;9.20;99.90;;;;;;5073013;28;20048;-65
2023/04/22 03:36:17;;;;;;;8.60;6.72;;;9.20;99.90;;;;;;5072409;28;20040;-65
2023/04/22 03:38:43;;;;;;;9.38;6.20;;;9.20;99.90;;;;;;5072759;28;20036;-65
2023/04/22 03:41:08;;;;;;;5.97;5.38;;;9.20;99.90;;;;;;5072731;28;20482;-65
2023/04/22 03:43:34;;;;;;;5.88;5.35;;;9.10;99.90;;;;;;5072059;28;20093;-65
2023/04/22 03:46:00;;;;;;;13.88;6.22;;;9.10;99.90;;;;;;5072835;28;20040;-65
2023/04/22 03:48:27;;;;;;;9.75;6.00;;;9.10;99.90;;;;;;5072682;28;20512;-65
2023/04/22 03:50:53;;;;;;;6.35;5.82;;;9.10;99.90;;;;;;5072668;28;20044;-66
2023/04/22 03:53:18;;;;;;;17.70;7.78;;;9.00;99.90;;;;;;5072106;28;20040;-65
2023/04/22 03:55:44;;;;;;;78.22;12.48;;;9.00;99.90;;;;;;5072414;28;20032;-65
2023/04/22 03:58:09;;;;;;;103.07;12.00;;;9.00;99.90;;;;;;5072647;28;20082;-65
2023/04/22 04:00:35;;;;;;;98.53;9.90;;;9.00;99.90;;;;;;5070539;28;20044;-66
2023/04/22 04:03:01;;;;;;;59.10;7.85;;;9.00;99.90;;;;;;5071931;28;20067;-66
2023/04/22 04:05:26;;;;;;;89.40;8.30;;;8.90;99.90;;;;;;5070899;28;20119;-65
2023/04/22 04:07:52;;;;;;;49.45;5.90;;;8.80;99.90;;;;;;5071698;28;20048;-66
2023/04/22 04:10:17;;;;;;;48.45;6.07;;;8.80;99.90;;;;;;5071697;28;20094;-65
2023/04/22 04:12:43;;;;;;;51.58;5.88;;;8.70;99.90;;;;;;5072115;28;20033;-65
2023/04/22 04:15:09;;;;;;;10.52;4.10;;;8.70;99.90;;;;;;5071926;28;20047;-65
2023/04/22 04:17:35;;;;;;;26.80;4.25;;;8.60;99.90;;;;;;5071696;28;20111;-66
2023/04/22 04:20:00;;;;;;;5.25;3.10;;;8.50;99.90;;;;;;5071705;28;20095;-65
2023/04/22 04:22:26;;;;;;;2.35;2.20;;;8.40;99.90;;;;;;5071867;28;20041;-65
2023/04/22 04:24:54;;;;;;;14.60;2.83;;;8.40;99.90;;;;;;5072004;28;20067;-65
2023/04/22 04:27:22;;;;;;;2.72;2.30;;;8.40;99.90;;;;;;5072256;28;20036;-66
2023/04/22 04:29:48;;;;;;;2.55;1.92;;;8.40;99.90;;;;;;5072124;28;20037;-65
2023/04/22 04:32:14;;;;;;;2.60;2.40;;;8.30;99.90;;;;;;5071786;28;20048;-66
2023/04/22 04:34:41;;;;;;;2.88;2.67;;;8.40;99.90;;;;;;5071607;28;20124;-65
2023/04/22 04:37:06;;;;;;;2.92;2.70;;;8.30;99.90;;;;;;5072218;28;20044;-65
2023/04/22 04:39:32;;;;;;;5.53;3.22;;;8.30;99.90;;;;;;5072095;28;20102;-65
2023/04/22 04:41:59;;;;;;;4.72;4.03;;;8.40;99.90;;;;;;5071781;28;20115;-65
2023/04/22 04:44:30;;;;;;;6.43;5.35;;;8.40;99.90;;;;;;5071094;28;20055;-65
2023/04/22 04:46:56;;;;;;;5.20;4.38;;;8.40;99.90;;;;;;5071947;28;20098;-65
2023/04/22 04:49:22;;;;;;;8.35;6.93;;;8.50;99.90;;;;;;5071280;28;20033;-66
2023/04/22 04:51:48;;;;;;;11.05;9.38;;;8.50;99.90;;;;;;5071692;28;20045;-65
2023/04/22 04:54:14;;;;;;;14.73;10.52;;;8.60;99.90;;;;;;5071109;28;20090;-65
2023/04/22 04:56:40;;;;;;;11.45;8.35;;;8.70;99.90;;;;;;5072037;28;20037;-65
2023/04/22 04:59:05;;;;;;;8.25;6.57;;;8.80;99.90;;;;;;5071713;28;20036;-65
2023/04/22 05:01:31;;;;;;;10.45;7.78;;;8.80;99.90;;;;;;5071526;28;20040;-66
2023/04/22 05:03:56;;;;;;;9.70;8.55;;;8.80;99.90;;;;;;5071734;28;20036;-65
2023/04/22 05:06:22;;;;;;;16.98;14.77;;;8.90;99.90;;;;;;5071720;28;20178;-65
2023/04/22 05:08:47;;;;;;;20.80;14.60;;;8.90;99.90;;;;;;5071709;28;20041;-65
2023/04/22 05:11:13;;;;;;;20.98;15.40;;;9.00;99.90;;;;;;5071438;28;20040;-65
2023/04/22 05:13:38;;;;;;;18.95;14.65;;;9.10;99.90;;;;;;5071652;28;20048;-66
2023/04/22 05:16:04;;;;;;;16.02;13.75;;;9.20;99.90;;;;;;5071035;28;20036;-65
2023/04/22 05:18:30;;;;;;;18.10;14.48;;;9.20;99.90;;;;;;5071443;28;20119;-65
2023/04/22 05:20:58;;;;;;;15.75;13.23;;;9.20;99.90;;;;;;5071015;28;20075;-65
2023/04/22 05:23:24;;;;;;;18.25;13.40;;;9.30;99.90;;;;;;5053075;28;20054;-66
2023/04/22 05:25:50;;;;;;;19.60;15.75;;;9.30;99.90;;;;;;5071218;28;20040;-66
2023/04/22 05:28:15;;;;;;;17.25;13.82;;;9.30;99.90;;;;;;5071592;28;20087;-65
2023/04/22 05:30:41;;;;;;;17.35;14.00;;;9.40;99.90;;;;;;5073256;28;20097;-66
2023/04/22 05:33:09;;;;;;;19.40;14.48;;;9.40;99.90;;;;;;5075237;28;20059;-65
2023/04/22 05:35:35;;;;;;;20.25;15.18;;;9.40;99.90;;;;;;5075264;28;20051;-65
2023/04/22 05:38:01;;;;;;;20.35;15.95;;;9.50;99.90;;;;;;5075252;28;20553;-66
2023/04/22 05:40:27;;;;;;;21.63;16.65;;;9.50;99.90;;;;;;5075147;28;20110;-66
2023/04/22 05:42:53;;;;;;;21.40;15.98;;;9.50;99.90;;;;;;5075491;28;20665;-66
2023/04/22 05:45:18;;;;;;;21.88;16.48;;;9.60;99.90;;;;;;5074904;28;20097;-66
2023/04/22 05:47:44;;;;;;;22.02;16.50;;;9.60;99.90;;;;;;5074983;28;20111;-65
2023/04/22 05:50:10;;;;;;;24.88;17.67;;;9.70;99.90;;;;;;5075082;28;20029;-66
2023/04/22 05:52:35;;;;;;;24.48;18.38;;;9.70;99.90;;;;;;5074642;28;20178;-66
2023/04/22 05:55:01;;;;;;;27.55;19.20;;;9.70;99.90;;;;;;5074670;28;20040;-65
2023/04/22 05:57:26;;;;;;;22.27;17.77;;;9.80;99.90;;;;;;5074883;28;20630;-66
2023/04/22 05:59:52;;;;;;;24.70;18.95;;;9.80;99.90;;;;;;5056786;28;20125;-65
2023/04/22 06:02:17;;;;;;;23.23;18.17;;;9.90;99.90;;;;;;5074501;28;20133;-66
2023/04/22 06:04:43;;;;;;;26.15;18.63;;;10.00;99.90;;;;;;5074130;28;20071;-66
2023/04/22 06:07:09;;;;;;;27.30;18.73;;;10.00;99.90;;;;;;5074733;28;20105;-66
2023/04/22 06:09:35;;;;;;;26.65;19.35;;;10.00;99.90;;;;;;5074704;28;20047;-66
2023/04/22 06:12:01;;;;;;;26.35;18.70;;;10.10;99.90;;;;;;5074380;28;20450;-66
2023/04/22 06:14:26;;;;;;;27.05;19.02;;;10.20;99.90;;;;;;5073772;28;20431;-65
2023/04/22 06:16:52;;;;;;;24.02;18.38;;;10.20;99.90;;;;;;5074435;28;20037;-66
2023/04/22 06:19:18;;;;;;;24.25;18.92;;;10.20;99.90;;;;;;5074667;28;20040;-66
2023/04/22 06:21:44;;;;;;;26.15;19.33;;;10.20;99.90;;;;;;5074355;28;20082;-66
2023/04/22 06:24:10;;;;;;;29.50;20.35;;;10.30;99.90;;;;;;5074342;28;20047;-66
2023/04/22 06:26:36;;;;;;;27.33;20.27;;;10.30;99.90;;;;;;5074376;28;20119;-65
2023/04/22 06:29:04;;;;;;;28.15;20.10;;;10.30;99.90;;;;;;5074267;28;20044;-65
2023/04/22 06:31:30;;;;;;;27.17;20.42;;;10.40;99.90;;;;;;5073267;28;20490;-66
2023/04/22 06:33:56;;;;;;;27.45;20.20;;;10.50;99.90;;;;;;5074253;28;20397;-65
2023/04/22 06:36:21;;;;;;;27.20;19.75;;;10.50;99.90;;;;;;5074188;28;20119;-65
2023/04/22 06:38:47;;;;;;;25.88;19.30;;;10.60;99.90;;;;;;5074160;28;20040;-65
2023/04/22 06:41:12;;;;;;;29.08;20.70;;;10.60;99.90;;;;;;5072686;28;20041;-66
2023/04/22 06:43:38;;;;;;;28.50;20.48;;;10.70;99.90;;;;;;5073853;28;20044;-64
2023/04/22 06:46:04;;;;;;;27.17;19.65;;;10.70;99.90;;;;;;5074013;28;20514;-65
2023/04/22 06:48:29;;;;;;;26.80;20.13;;;10.80;99.90;;;;;;5074116;28;20041;-65
2023/04/22 06:50:56;;;;;;;26.23;19.30;;;10.80;99.90;;;;;;5073734;28;20666;-66
2023/04/22 06:53:21;;;;;;;25.90;20.05;;;10.90;99.90;;;;;;5074007;28;20112;-65
2023/04/22 06:55:47;;;;;;;27.02;19.20;;;10.90;99.90;;;;;;5073575;28;20498;-65
2023/04/22 06:58:12;;;;;;;24.92;18.95;;;11.00;99.90;;;;;;5073680;28;20040;-65
2023/04/22 07:00:38;;;;;;;26.85;19.77;;;11.10;99.90;;;;;;5073686;28;20051;-66
2023/04/22 07:03:04;;;;;;;25.27;18.40;;;11.10;99.90;;;;;;5072687;28;20037;-65
2023/04/22 07:05:29;;;;;;;24.75;19.08;;;11.10;99.90;;;;;;5073133;28;20040;-65
2023/04/22 07:07:55;;;;;;;25.30;18.55;;;11.20;99.90;;;;;;5073751;28;20128;-65
2023/04/22 07:10:20;;;;;;;24.23;18.23;;;11.20;99.90;;;;;;5073403;28;20043;-66
2023/04/22 07:12:46;;;;;;;23.27;17.15;;;11.30;99.90;;;;;;5073271;28;20512;-66
2023/04/22 07:15:12;;;;;;;28.48;18.40;;;11.30;99.90;;;;;;5073217;28;20032;-65
2023/04/22 07:17:37;;;;;;;23.58;17.73;;;11.40;99.90;;;;;;5073279;28;20044;-66
2023/04/22 07:20:03;;;;;;;25.05;16.65;;;11.40;99.90;;;;;;5073146;28;20040;-65
2023/04/22 07:22:29;;;;;;;25.08;17.30;;;11.50;99.90;;;;;;5073082;28;20037;-65
2023/04/22 07:24:55;;;;;;;20.75;15.68;;;11.50;99.90;;;;;;5073113;28;20036;-66
2023/04/22 07:27:20;;;;;;;24.52;17.10;;;11.60;99.90;;;;;;5073230;28;20058;-66
2023/04/22 07:29:46;;;;;;;20.67;16.00;;;11.70;99.90;;;;;;5072628;28;20059;-65
2023/04/22 07:32:11;;;;;;;21.98;16.23;;;11.70;99.90;;;;;;5072556;28;20040;-65
2023/04/22 07:34:37;;;;;;;22.88;16.83;;;11.70;99.90;;;;;;5072796;28;20033;-65
2023/04/22 07:37:03;;;;;;;21.67;15.82;;;11.80;99.90;;;;;;5072617;28;20067;-65
2023/04/22 07:39:29;;;;;;;25.85;16.27;;;11.90;99.90;;;;;;5072906;28;20419;-66
2023/04/22 07:41:56;;;;;;;20.65;16.08;;;12.00;99.90;;;;;;5072277;28;20041;-66
2023/04/22 07:44:22;;;;;;;22.38;16.52;;;12.00;99.90;;;;;;5073000;28;20044;-65
2023/04/22 07:46:47;;;;;;;19.83;15.00;;;12.10;99.90;;;;;;5072516;28;20045;-65
2023/04/22 07:49:14;;;;;;;18.40;14.65;;;12.20;99.90;;;;;;5072902;28;20041;-65
2023/04/22 07:51:40;;;;;;;21.40;14.98;;;12.30;99.90;;;;;;5072411;28;20391;-65
2023/04/22 07:54:06;;;;;;;21.75;14.48;;;12.30;99.90;;;;;;5072163;28;20043;-66
2023/04/22 07:56:32;;;;;;;19.63;14.38;;;12.40;99.90;;;;;;5087621;22;20068;-63
2023/04/22 07:58:57;;;;;;;19.45;14.68;;;12.50;99.90;;;;;;5085126;28;20024;-63
2023/04/22 08:01:23;;;;;;;20.13;14.52;;;12.60;99.90;;;;;;5087338;28;20102;-64
2023/04/22 08:03:48;;;;;;;19.42;14.93;;;12.70;99.90;;;;;;5092562;28;20076;-64
2023/04/22 08:06:14;;;;;;;19.58;14.98;;;12.70;99.90;;;;;;5092318;28;20036;-64
2023/04/22 08:08:40;;;;;;;19.60;14.07;;;12.80;99.90;;;;;;5092768;28;20425;-64
2023/04/22 08:11:06;;;;;;;18.60;13.18;;;13.00;99.90;;;;;;5091472;28;20052;-64
2023/04/22 08:13:32;;;;;;;17.92;13.55;;;13.10;99.90;;;;;;5092493;28;20032;-64
2023/04/22 08:15:59;;;;;;;18.15;13.70;;;13.30;99.90;;;;;;5092032;28;20123;-64
2023/04/22 08:18:24;;;;;;;18.08;13.77;;;13.50;99.90;;;;;;5092392;28;20044;-64
2023/04/22 08:20:50;;;;;;;19.35;13.90;;;13.60;99.90;;;;;;5074088;28;20042;-64
2023/04/22 08:23:15;;;;;;;16.77;13.43;;;13.80;99.90;;;;;;5092616;28;20402;-64
2023/04/22 08:25:41;;;;;;;19.25;14.30;;;13.90;99.90;;;;;;5091362;28;20044;-64
2023/04/22 08:28:06;;;;;;;18.67;13.45;;;14.00;99.90;;;;;;5091611;28;20085;-64
2023/04/22 08:30:32;;;;;;;16.73;13.07;;;14.20;99.90;;;;;;5092396;28;20123;-64
2023/04/22 08:32:58;;;;;;;15.02;12.43;;;14.40;99.90;;;;;;5091853;28;20063;-64
2023/04/22 08:35:23;;;;;;;15.32;11.93;;;14.60;99.90;;;;;;5091854;28;20500;-64
2023/04/22 08:37:49;;;;;;;17.30;12.38;;;14.80;99.90;;;;;;5091966;28;20035;-64
2023/04/22 08:40:14;;;;;;;14.05;11.90;;;15.00;99.90;;;;;;5092228;28;20673;-65
2023/04/22 08:42:40;;;;;;;12.07;9.57;;;15.20;99.90;;;;;;5091365;28;20033;-65
2023/04/22 08:45:08;;;;;;;14.93;10.50;;;15.40;99.90;;;;;;5091713;28;20061;-64
2023/04/22 08:47:36;;;;;;;14.82;11.43;;;15.50;99.90;;;;;;5091911;28;20044;-64
2023/04/22 08:50:03;;;;;;;13.07;10.80;;;15.60;99.90;;;;;;5092201;28;20048;-64
2023/04/22 08:52:30;;;;;;;13.82;11.13;;;15.70;99.90;;;;;;5073618;28;20044;-64
2023/04/22 08:54:55;;;;;;;12.85;10.40;;;15.80;99.90;;;;;;5091854;28;20123;-64
2023/04/22 08:57:22;;;;;;;14.57;10.93;;;16.00;99.90;;;;;;5091906;28;20128;-64
2023/04/22 08:59:49;;;;;;;14.20;10.40;;;16.20;99.90;;;;;;5091334;28;20436;-64
2023/04/22 09:02:19;;;;;;;11.25;9.80;;;16.40;99.90;;;;;;5091463;28;20051;-64
2023/04/22 09:04:50;;;;;;;12.77;10.45;;;16.50;99.90;;;;;;5074582;28;20047;-64
2023/04/22 09:07:25;;;;;;;12.18;9.05;;;16.50;99.90;;;;;;5095790;28;20554;-64
2023/04/22 09:09:53;;;;;;;12.45;9.63;;;16.60;99.90;;;;;;5096083;28;20089;-64
2023/04/22 09:12:19;;;;;;;11.57;9.68;;;16.60;99.90;;;;;;5095874;28;20051;-64
2023/04/22 09:14:45;;;;;;;11.98;10.10;;;16.70;99.90;;;;;;5096020;28;20405;-64
2023/04/22 09:17:14;;;;;;;13.18;10.63;;;16.70;99.90;;;;;;5077165;28;20043;-64
2023/04/22 09:19:40;;;;;;;14.30;9.55;;;16.80;99.90;;;;;;5095982;28;20077;-64
2023/04/22 09:22:09;;;;;;;11.23;8.90;;;17.00;99.90;;;;;;5095173;28;20591;-64
2023/04/22 09:24:35;;;;;;;11.73;9.00;;;17.10;99.90;;;;;;5095927;28;20105;-64
2023/04/22 09:27:04;;;;;;;11.63;9.63;;;17.10;99.90;;;;;;5095765;28;20513;-64
2023/04/22 09:29:30;;;;;;;13.48;9.63;;;17.00;99.90;;;;;;5095655;28;20509;-64
2023/04/22 09:31:56;;;;;;;11.05;9.57;;;17.00;99.90;;;;;;5095392;28;20075;-64
2023/04/22 09:34:21;;;;;;;11.40;10.02;;;17.10;99.90;;;;;;5095552;28;20062;-64
2023/04/22 09:36:50;;;;;;;12.13;9.55;;;17.20;99.90;;;;;;5095324;28;20059;-64
2023/04/22 09:39:16;;;;;;;10.65;8.90;;;17.30;99.90;;;;;;5095683;28;20036;-64
2023/04/22 09:41:41;;;;;;;10.90;8.73;;;17.30;99.90;;;;;;5094822;28;20043;-64
2023/04/22 09:44:16;;;;;;;10.02;8.32;;;17.20;99.90;;;;;;5095158;28;20036;-64
2023/04/22 09:46:43;;;;;;;8.90;7.57;;;17.20;99.90;;;;;;5095137;28;20046;-64
2023/04/22 09:49:09;;;;;;;10.20;7.18;;;17.30;99.90;;;;;;5095262;28;20040;-64
2023/04/22 09:51:39;;;;;;;10.30;8.05;;;17.30;99.90;;;;;;5094697;28;20039;-64
2023/04/22 09:54:10;;;;;;;9.73;7.60;;;17.40;99.90;;;;;;5095388;28;20119;-64
2023/04/22 09:56:47;;;;;;;10.40;8.45;;;17.40;99.90;;;;;;5095000;28;20047;-64
2023/04/22 09:59:22;;;;;;;11.05;8.30;;;17.40;99.90;;;;;;5095198;28;20089;-64
2023/04/22 10:01:52;;;;;;;11.18;8.30;;;17.50;99.90;;;;;;5094717;28;20043;-64
2023/04/22 10:04:20;;;;;;;12.10;7.95;;;17.70;99.90;;;;;;5095277;28;20044;-64
2023/04/22 10:06:49;;;;;;;10.15;7.78;;;17.80;99.90;;;;;;5094950;28;20051;-64
2023/04/22 10:09:18;;;;;;;9.20;7.95;;;17.90;99.90;;;;;;5095011;28;20040;-64
2023/04/22 10:11:43;;;;;;;10.18;8.15;;;17.90;99.90;;;;;;5094572;28;20123;-64
2023/04/22 10:14:10;;;;;;;10.98;8.30;;;18.10;99.90;;;;;;5094750;28;20120;-64
2023/04/22 10:16:38;;;;;;;9.38;7.93;;;18.20;99.90;;;;;;5094508;28;20043;-64
2023/04/22 10:19:05;;;;;;;10.57;7.90;;;18.30;99.90;;;;;;5094698;28;20115;-64
2023/04/22 10:21:31;;;;;;;10.40;8.88;;;18.40;99.90;;;;;;5094624;28;20048;-64
2023/04/22 10:24:00;;;;;;;9.90;7.97;;;18.50;99.90;;;;;;5094620;28;20040;-64
2023/04/22 10:26:47;;;;;;;10.38;7.70;;;18.60;99.90;;;;;;5094425;28;20504;-64
2023/04/22 10:29:16;;;;;;;10.68;8.07;;;18.70;99.90;;;;;;5094569;28;20050;-64
2023/04/22 10:31:43;;;;;;;9.48;7.82;;;18.70;99.90;;;;;;5093988;28;20040;-64
2023/04/22 10:34:13;;;;;;;9.57;8.13;;;18.60;99.90;;;;;;5094192;28;20075;-63
2023/04/22 10:37:04;;;;;;;9.85;7.45;;;18.70;99.90;;;;;;5076190;28;20044;-64
2023/04/22 10:39:30;;;;;;;10.32;7.90;;;18.80;99.90;;;;;;5094649;28;20036;-64
2023/04/22 10:42:18;;;;;;;9.80;8.18;;;18.80;99.90;;;;;;5093593;28;20039;-64
2023/04/22 10:44:52;;;;;;;10.07;7.65;;;18.90;99.90;;;;;;5094110;28;20070;-64
2023/04/22 10:47:35;;;;;;;13.23;8.10;;;18.90;99.90;;;;;;5094185;28;20036;-64
2023/04/22 10:50:22;;;;;;;10.93;8.68;;;18.80;99.90;;;;;;5094456;28;20044;-64
2023/04/22 10:52:55;;;;;;;10.88;8.63;;;18.80;99.90;;;;;;5093972;28;20044;-64
2023/04/22 10:55:22;;;;;;;10.25;8.48;;;18.90;99.90;;;;;;5076011;28;20165;-64
2023/04/22 10:57:49;;;;;;;11.50;8.50;;;18.90;99.90;;;;;;5093816;28;20040;-64
2023/04/22 11:00:30;;;;;;;9.30;7.95;;;19.00;99.90;;;;;;5093836;28;20043;-65
2023/04/22 11:03:04;;;;;;;11.25;8.18;;;19.10;99.90;;;;;;5093969;28;20035;-65
2023/04/22 11:05:31;;;;;;;10.45;8.27;;;19.10;99.90;;;;;;5093894;28;20044;-65
2023/04/22 11:08:19;;;;;;;9.82;8.15;;;19.10;99.90;;;;;;5093846;28;20032;-65
2023/04/22 11:10:49;;;;;;;9.65;7.65;;;19.20;99.90;;;;;;5075688;28;20040;-65
2023/04/22 11:13:18;;;;;;;10.00;7.90;;;19.30;99.90;;;;;;5093819;28;20399;-65
2023/04/22 11:15:45;;;;;;;11.05;8.90;;;19.30;99.90;;;;;;5075514;28;20036;-65
2023/04/22 11:18:18;;;;;;;9.98;8.48;;;19.40;99.90;;;;;;5093596;28;20039;-65
2023/04/22 11:20:44;;;;;;;11.10;8.10;;;19.50;99.90;;;;;;5093202;28;20492;-65
2023/04/22 11:23:10;;;;;;;9.25;8.25;;;19.60;99.90;;;;;;5092912;28;20094;-65
2023/04/22 11:25:35;;;;;;;11.20;8.57;;;19.70;99.90;;;;;;5093449;28;20436;-64
2023/04/22 11:28:01;;;;;;;10.48;8.13;;;19.70;99.90;;;;;;5092667;28;20044;-65
2023/04/22 11:30:27;;;;;;;9.95;8.82;;;19.80;99.90;;;;;;5093054;28;20059;-65
2023/04/22 11:32:57;;;;;;;11.45;8.98;;;19.70;99.90;;;;;;5074831;28;20509;-65
2023/04/22 11:35:25;;;;;;;10.75;8.40;;;19.70;99.90;;;;;;5092886;28;20054;-65
2023/04/22 11:38:04;;;;;;;13.00;8.20;;;19.80;99.90;;;;;;5093080;28;20504;-65
2023/04/22 11:40:32;;;;;;;10.70;8.88;;;19.90;99.90;;;;;;5093191;28;20047;-65
2023/04/22 11:42:59;;;;;;;11.27;8.55;;;19.90;99.90;;;;;;5074652;28;20051;-65
2023/04/22 11:45:26;;;;;;;12.60;9.07;;;19.70;99.90;;;;;;5075239;28;20043;-65
2023/04/22 11:47:52;;;;;;;11.73;9.05;;;19.50;99.90;;;;;;5092844;28;20079;-65
2023/04/22 11:50:22;;;;;;;10.48;9.07;;;19.40;99.90;;;;;;5092880;28;20036;-65
2023/04/22 11:52:55;;;;;;;11.20;9.05;;;19.40;99.90;;;;;;5092847;28;20036;-65
2023/04/22 11:55:22;;;;;;;12.98;9.80;;;19.30;99.90;;;;;;5092913;28;20205;-65
2023/04/22 11:57:56;;;;;;;11.73;8.98;;;19.40;99.90;;;;;;5092767;28;20044;-65
2023/04/22 12:00:26;;;;;;;10.90;9.63;;;19.60;99.90;;;;;;5092798;28;20154;-65
2023/04/22 12:02:57;;;;;;;12.18;9.55;;;19.80;99.90;;;;;;5093099;28;20398;-65
2023/04/22 12:05:37;;;;;;;11.32;8.10;;;19.80;99.90;;;;;;5092709;28;20039;-65
2023/04/22 12:08:08;;;;;;;10.73;9.00;;;19.80;99.90;;;;;;5092684;28;20170;-65
2023/04/22 12:10:42;;;;;;;10.88;8.70;;;19.80;99.90;;;;;;5092514;28;20044;-65
2023/04/22 12:13:08;;;;;;;10.30;8.15;;;19.90;99.90;;;;;;5092464;28;20460;-65
2023/04/22 12:15:42;;;;;;;10.77;8.38;;;19.90;99.90;;;;;;5092747;28;20105;-65
2023/04/22 12:18:08;;;;;;;12.02;8.10;;;20.00;99.90;;;;;;5092483;28;20075;-65
2023/04/22 12:20:35;;;;;;;11.40;8.88;;;20.00;99.90;;;;;;5091979;28;20507;-65
2023/04/22 12:23:00;;;;;;;11.20;8.77;;;19.90;99.90;;;;;;5092400;28;20036;-65
2023/04/22 12:25:26;;;;;;;12.23;8.57;;;19.90;99.90;;;;;;5091831;28;20032;-65
2023/04/22 12:27:51;;;;;;;9.75;7.85;;;19.80;99.90;;;;;;5092497;28;20055;-65
2023/04/22 12:30:17;;;;;;;11.55;8.57;;;19.80;99.90;;;;;;5092331;28;20489;-66
2023/04/22 12:32:43;;;;;;;9.88;8.48;;;19.80;99.90;;;;;;5092198;28;20036;-65
2023/04/22 12:35:08;;;;;;;9.10;7.97;;;19.90;99.90;;;;;;5092221;28;20409;-65
2023/04/22 12:37:34;;;;;;;9.88;8.18;;;19.90;99.90;;;;;;5091671;28;20081;-65
2023/04/22 12:40:00;;;;;;;10.45;7.90;;;20.10;99.90;;;;;;5091638;28;20363;-65